sensor_id;sensor_type;location;lat;lon;timestamp;pressure;altitude;pressure_sealevel;temperature;humidity
2339;BME280;1180;51.438;6.978;2023-04-27T00:02:07;100668.75;;;9.81;62.65
2339;BME280;1180;51.438;6.978;2023-04-27T00:04:32;100663.91;;;9.57;63.19
2339;BME280;1180;51.438;6.978;2023-04-27T00:06:57;100669.31;;;9.51;64.13
2339;BME280;1180;51.438;6.978;2023-04-27T00:09:22;100665.72;;;9.55;63.35
2339;BME280;1180;51.438;6.978;2023-04-27T00:11:48;100666.00;;;9.49;63.61
2339;BME280;1180;51.438;6.978;2023-04-27T00:14:13;100667.81;;;9.29;64.43
2339;BME280;1180;51.438;6.978;2023-04-27T00:16:39;100670.16;;;9.15;65.06
2339;BME280;1180;51.438;6.978;2023-04-27T00:19:04;100670.13;;;9.16;65.29
2339;BME280;1180;51.438;6.978;2023-04-27T00:21:29;100668.38;;;9.17;65.56
2339;BME280;1180;51.438;6.978;2023-04-27T00:23:55;100676.13;;;9.15;65.86
2339;BME280;1180;51.438;6.978;2023-04-27T00:26:21;100673.78;;;9.10;65.94
2339;BME280;1180;51.438;6.978;2023-04-27T00:28:46;100670.16;;;9.15;65.70
2339;BME280;1180;51.438;6.978;2023-04-27T00:31:12;100668.06;;;9.23;65.98
2339;BME280;1180;51.438;6.978;2023-04-27T00:33:37;100666.56;;;9.19;66.17
2339;BME280;1180;51.438;6.978;2023-04-27T00:36:03;100666.41;;;9.22;65.98
2339;BME280;1180;51.438;6.978;2023-04-27T00:38:29;100676.56;;;9.43;65.31
2339;BME280;1180;51.438;6.978;2023-04-27T00:41:01;100670.53;;;9.44;64.78
2339;BME280;1180;51.438;6.978;2023-04-27T00:43:26;100679.16;;;9.23;65.62
2339;BME280;1180;51.438;6.978;2023-04-27T00:45:52;100682.91;;;9.16;66.09
2339;BME280;1180;51.438;6.978;2023-04-27T00:48:17;100673.44;;;9.36;65.52
2339;BME280;1180;51.438;6.978;2023-04-27T00:50:42;100677.25;;;9.46;65.15
2339;BME280;1180;51.438;6.978;2023-04-27T00:53:08;100679.78;;;9.29;65.24
2339;BME280;1180;51.438;6.978;2023-04-27T00:55:33;100682.78;;;9.00;66.25
2339;BME280;1180;51.438;6.978;2023-04-27T00:57:59;100684.59;;;8.79;67.42
2339;BME280;1180;51.438;6.978;2023-04-27T01:00:24;100682.09;;;8.77;67.90
2339;BME280;1180;51.438;6.978;2023-04-27T01:02:50;100685.53;;;8.95;67.60
2339;BME280;1180;51.438;6.978;2023-04-27T01:05:17;100684.59;;;8.79;67.81
2339;BME280;1180;51.438;6.978;2023-04-27T01:07:43;100682.66;;;8.84;67.76
2339;BME280;1180;51.438;6.978;2023-04-27T01:10:09;100696.25;;;8.85;68.24
2339;BME280;1180;51.438;6.978;2023-04-27T01:12:35;100686.44;;;8.94;67.61
2339;BME280;1180;51.438;6.978;2023-04-27T01:15:01;100685.53;;;8.95;67.33
2339;BME280;1180;51.438;6.978;2023-04-27T01:17:27;100687.34;;;9.13;66.79
2339;BME280;1180;51.438;6.978;2023-04-27T01:19:52;100684.72;;;9.14;66.49
2339;BME280;1180;51.438;6.978;2023-04-27T01:22:20;100689.72;;;8.98;67.43
2339;BME280;1180;51.438;6.978;2023-04-27T01:24:46;100685.25;;;9.02;67.64
2339;BME280;1180;51.438;6.978;2023-04-27T01:27:11;100691.56;;;8.94;67.26
2339;BME280;1180;51.438;6.978;2023-04-27T01:29:37;100689.34;;;8.87;67.91
2339;BME280;1180;51.438;6.978;2023-04-27T01:32:03;100690.81;;;8.92;67.47
2339;BME280;1180;51.438;6.978;2023-04-27T01:34:28;100689.16;;;8.91;67.39
2339;BME280;1180;51.438;6.978;2023-04-27T01:36:54;100695.03;;;8.93;67.54
2339;BME280;1180;51.438;6.978;2023-04-27T01:39:19;100704.84;;;8.84;67.85
2339;BME280;1180;51.438;6.978;2023-04-27T01:41:44;100702.69;;;8.74;68.16
2339;BME280;1180;51.438;6.978;2023-04-27T01:44:10;100695.78;;;8.76;68.41
2339;BME280;1180;51.438;6.978;2023-04-27T01:46:36;100700.75;;;8.60;68.65
2339;BME280;1180;51.438;6.978;2023-04-27T01:49:01;100700.41;;;8.47;69.80
2339;BME280;1180;51.438;6.978;2023-04-27T01:51:27;100696.66;;;8.56;69.71
2339;BME280;1180;51.438;6.978;2023-04-27T01:53:52;100702.47;;;8.60;69.60
2339;BME280;1180;51.438;6.978;2023-04-27T01:56:17;100700.41;;;8.47;70.25
2339;BME280;1180;51.438;6.978;2023-04-27T01:58:43;100702.53;;;8.58;70.00
2339;BME280;1180;51.438;6.978;2023-04-27T02:01:08;100706.56;;;8.64;69.16
2339;BME280;1180;51.438;6.978;2023-04-27T02:03:34;100709.88;;;8.45;70.13
2339;BME280;1180;51.438;6.978;2023-04-27T02:05:59;100716.78;;;8.43;70.59
2339;BME280;1180;51.438;6.978;2023-04-27T02:08:25;100723.88;;;8.36;70.97
2339;BME280;1180;51.438;6.978;2023-04-27T02:10:50;100723.53;;;8.46;70.64
2339;BME280;1180;51.438;6.978;2023-04-27T02:13:15;100721.47;;;8.33;70.91
2339;BME280;1180;51.438;6.978;2023-04-27T02:15:41;100714.16;;;8.45;70.74
2339;BME280;1180;51.438;6.978;2023-04-27T02:18:06;100718.66;;;8.60;70.22
2339;BME280;1180;51.438;6.978;2023-04-27T02:20:32;100719.16;;;8.48;70.38
2339;BME280;1180;51.438;6.978;2023-04-27T02:22:58;100712.66;;;8.20;71.45
2339;BME280;1180;51.438;6.978;2023-04-27T02:25:23;100705.94;;;8.17;72.00
2339;BME280;1180;51.438;6.978;2023-04-27T02:27:49;100711.19;;;8.14;71.87
2339;BME280;1180;51.438;6.978;2023-04-27T02:30:14;100707.09;;;8.10;72.83
2339;BME280;1180;51.438;6.978;2023-04-27T02:32:40;100710.91;;;8.20;72.34
2339;BME280;1180;51.438;6.978;2023-04-27T02:35:06;100707.19;;;8.28;72.50
2339;BME280;1180;51.438;6.978;2023-04-27T02:37:32;100704.78;;;8.24;72.09
2339;BME280;1180;51.438;6.978;2023-04-27T02:39:58;100703.81;;;8.27;71.95
2339;BME280;1180;51.438;6.978;2023-04-27T02:42:23;100705.66;;;8.23;72.38
2339;BME280;1180;51.438;6.978;2023-04-27T02:44:49;100706.00;;;8.16;72.36
2339;BME280;1180;51.438;6.978;2023-04-27T02:47:14;100705.16;;;8.15;72.21
2339;BME280;1180;51.438;6.978;2023-04-27T02:49:39;100705.66;;;8.23;72.17
2339;BME280;1180;51.438;6.978;2023-04-27T02:52:05;100698.25;;;8.17;72.17
2339;BME280;1180;51.438;6.978;2023-04-27T02:54:30;100704.28;;;7.73;73.29
2339;BME280;1180;51.438;6.978;2023-04-27T02:56:56;100702.84;;;7.88;73.53
2339;BME280;1180;51.438;6.978;2023-04-27T02:59:21;100706.44;;;7.84;73.27
2339;BME280;1180;51.438;6.978;2023-04-27T03:01:47;100701.56;;;7.78;72.14
2339;BME280;1180;51.438;6.978;2023-04-27T03:04:12;100706.03;;;7.93;72.46
2339;BME280;1180;51.438;6.978;2023-04-27T03:06:42;100700.78;;;8.19;71.29
2339;BME280;1180;51.438;6.978;2023-04-27T03:09:07;100689.97;;;8.12;71.23
2339;BME280;1180;51.438;6.978;2023-04-27T03:11:34;100688.03;;;8.17;71.06
2339;BME280;1180;51.438;6.978;2023-04-27T03:14:00;100680.88;;;8.26;70.52
2339;BME280;1180;51.438;6.978;2023-04-27T03:16:25;100680.44;;;8.16;71.10
2339;BME280;1180;51.438;6.978;2023-04-27T03:18:51;100678.56;;;8.19;70.93
2339;BME280;1180;51.438;6.978;2023-04-27T03:21:16;100678.84;;;8.13;71.56
2339;BME280;1180;51.438;6.978;2023-04-27T03:23:42;100671.22;;;8.32;70.96
2339;BME280;1180;51.438;6.978;2023-04-27T03:26:12;100679.28;;;8.23;71.34
2339;BME280;1180;51.438;6.978;2023-04-27T03:28:38;100676.88;;;8.20;71.39
2339;BME280;1180;51.438;6.978;2023-04-27T03:31:05;100681.09;;;8.21;71.99
2339;BME280;1180;51.438;6.978;2023-04-27T03:33:32;100672.69;;;8.17;71.84
2339;BME280;1180;51.438;6.978;2023-04-27T03:35:58;100682.34;;;8.10;72.24
2339;BME280;1180;51.438;6.978;2023-04-27T03:38:24;100681.91;;;8.01;72.27
2339;BME280;1180;51.438;6.978;2023-04-27T03:40:50;100690.09;;;8.09;72.27
2339;BME280;1180;51.438;6.978;2023-04-27T03:43:16;100688.16;;;8.14;72.27
2339;BME280;1180;51.438;6.978;2023-04-27T03:45:41;100698.41;;;8.14;72.02
2339;BME280;1180;51.438;6.978;2023-04-27T03:48:07;100700.00;;;8.17;72.07
2339;BME280;1180;51.438;6.978;2023-04-27T03:50:32;100705.63;;;8.04;72.16
2339;BME280;1180;51.438;6.978;2023-04-27T03:52:58;100689.63;;;7.99;72.75
2339;BME280;1180;51.438;6.978;2023-04-27T03:55:23;100701.03;;;8.13;72.34
2339;BME280;1180;51.438;6.978;2023-04-27T03:57:50;100694.56;;;8.04;72.35
2339;BME280;1180;51.438;6.978;2023-04-27T04:00:15;100704.97;;;7.99;73.05
2339;BME280;1180;51.438;6.978;2023-04-27T04:02:41;100704.59;;;8.08;72.80
2339;BME280;1180;51.438;6.978;2023-04-27T04:05:06;100708.75;;;8.11;72.91
2339;BME280;1180;51.438;6.978;2023-04-27T04:07:33;100706.97;;;8.13;72.76
2339;BME280;1180;51.438;6.978;2023-04-27T04:09:58;100708.75;;;8.11;72.86
2339;BME280;1180;51.438;6.978;2023-04-27T04:12:24;100714.59;;;8.15;72.62
2339;BME280;1180;51.438;6.978;2023-04-27T04:14:49;100715.91;;;8.03;73.33
2339;BME280;1180;51.438;6.978;2023-04-27T04:17:15;100721.06;;;7.80;74.17
2339;BME280;1180;51.438;6.978;2023-04-27T04:19:41;100725.63;;;7.72;74.44
2339;BME280;1180;51.438;6.978;2023-04-27T04:22:06;100721.50;;;7.70;75.47
2339;BME280;1180;51.438;6.978;2023-04-27T04:24:34;100719.81;;;7.91;74.60
2339;BME280;1180;51.438;6.978;2023-04-27T04:27:01;100712.56;;;7.80;74.58
2339;BME280;1180;51.438;6.978;2023-04-27T04:29:27;100724.41;;;7.83;75.11
2339;BME280;1180;51.438;6.978;2023-04-27T04:31:54;100724.97;;;7.89;74.62
2339;BME280;1180;51.438;6.978;2023-04-27T04:34:20;100720.47;;;7.74;75.59
2339;BME280;1180;51.438;6.978;2023-04-27T04:36:46;100717.63;;;7.82;75.34
2339;BME280;1180;51.438;6.978;2023-04-27T04:39:16;100724.13;;;7.89;74.68
2339;BME280;1180;51.438;6.978;2023-04-27T04:41:45;100717.03;;;7.75;75.65
2339;BME280;1180;51.438;6.978;2023-04-27T04:44:10;100721.88;;;7.81;75.64
2339;BME280;1180;51.438;6.978;2023-04-27T04:46:36;100723.53;;;7.82;75.84
2339;BME280;1180;51.438;6.978;2023-04-27T04:49:03;100723.00;;;7.96;75.20
2339;BME280;1180;51.438;6.978;2023-04-27T04:51:28;100726.13;;;8.03;74.65
2339;BME280;1180;51.438;6.978;2023-04-27T04:53:53;100724.41;;;8.03;74.61
2339;BME280;1180;51.438;6.978;2023-04-27T04:56:19;100719.88;;;8.10;74.75
2339;BME280;1180;51.438;6.978;2023-04-27T04:58:45;100721.03;;;8.03;74.54
2339;BME280;1180;51.438;6.978;2023-04-27T05:01:10;100723.00;;;7.96;74.93
2339;BME280;1180;51.438;6.978;2023-04-27T05:03:36;100724.06;;;7.90;75.38
2339;BME280;1180;51.438;6.978;2023-04-27T05:06:01;100727.50;;;7.89;75.59
2339;BME280;1180;51.438;6.978;2023-04-27T05:08:27;100723.75;;;7.98;75.58
2339;BME280;1180;51.438;6.978;2023-04-27T05:10:53;100731.69;;;7.92;75.23
2339;BME280;1180;51.438;6.978;2023-04-27T05:13:19;100736.72;;;7.93;75.39
2339;BME280;1180;51.438;6.978;2023-04-27T05:15:45;100737.03;;;7.86;76.05
2339;BME280;1180;51.438;6.978;2023-04-27T05:18:10;100734.16;;;7.93;75.71
2339;BME280;1180;51.438;6.978;2023-04-27T05:20:37;100740.44;;;8.07;74.88
2339;BME280;1180;51.438;6.978;2023-04-27T05:23:03;100747.59;;;7.99;75.16
2339;BME280;1180;51.438;6.978;2023-04-27T05:25:32;100747.47;;;8.02;75.10
2339;BME280;1180;51.438;6.978;2023-04-27T05:27:58;100747.81;;;8.15;74.87
2339;BME280;1180;51.438;6.978;2023-04-27T05:30:23;100750.03;;;8.22;74.52
2339;BME280;1180;51.438;6.978;2023-04-27T05:32:49;100752.72;;;8.19;74.50
2339;BME280;1180;51.438;6.978;2023-04-27T05:35:14;100757.84;;;8.19;73.81
2339;BME280;1180;51.438;6.978;2023-04-27T05:37:40;100760.47;;;8.18;73.66
2339;BME280;1180;51.438;6.978;2023-04-27T05:40:06;100768.31;;;8.13;73.09
2339;BME280;1180;51.438;6.978;2023-04-27T05:42:36;100767.16;;;8.20;73.16
2339;BME280;1180;51.438;6.978;2023-04-27T05:45:02;100762.34;;;8.35;72.09
2339;BME280;1180;51.438;6.978;2023-04-27T05:47:29;100766.47;;;8.37;72.00
2339;BME280;1180;51.438;6.978;2023-04-27T05:49:54;100765.97;;;8.29;72.00
2339;BME280;1180;51.438;6.978;2023-04-27T05:52:20;100767.22;;;8.39;71.21
2339;BME280;1180;51.438;6.978;2023-04-27T05:54:46;100769.78;;;8.39;70.86
2339;BME280;1180;51.438;6.978;2023-04-27T05:57:12;100772.84;;;8.49;70.91
2339;BME280;1180;51.438;6.978;2023-04-27T05:59:37;100770.38;;;8.46;70.69
2339;BME280;1180;51.438;6.978;2023-04-27T06:02:02;100769.19;;;8.55;70.39
2339;BME280;1180;51.438;6.978;2023-04-27T06:04:28;100775.69;;;8.62;70.45
2339;BME280;1180;51.438;6.978;2023-04-27T06:06:53;100772.81;;;8.70;69.73
2339;BME280;1180;51.438;6.978;2023-04-27T06:09:19;100783.69;;;8.75;69.29
2339;BME280;1180;51.438;6.978;2023-04-27T06:11:45;100776.16;;;8.72;69.20
2339;BME280;1180;51.438;6.978;2023-04-27T06:14:11;100778.44;;;8.78;68.36
2339;BME280;1180;51.438;6.978;2023-04-27T06:16:37;100782.97;;;8.92;68.75
2339;BME280;1180;51.438;6.978;2023-04-27T06:19:04;100776.50;;;8.84;68.00
2339;BME280;1180;51.438;6.978;2023-04-27T06:21:33;100782.16;;;8.71;68.47
2339;BME280;1180;51.438;6.978;2023-04-27T06:23:59;100777.22;;;8.66;68.07
2339;BME280;1180;51.438;6.978;2023-04-27T06:26:25;100763.66;;;8.85;68.36
2339;BME280;1180;51.438;6.978;2023-04-27T06:28:50;100771.34;;;8.85;68.46
2339;BME280;1180;51.438;6.978;2023-04-27T06:31:16;100767.31;;;8.99;67.83
2339;BME280;1180;51.438;6.978;2023-04-27T06:33:41;100774.44;;;8.92;66.69
2339;BME280;1180;51.438;6.978;2023-04-27T06:36:06;100770.75;;;8.78;67.37
2339;BME280;1180;51.438;6.978;2023-04-27T06:38:32;100784.59;;;8.74;67.38
2339;BME280;1180;51.438;6.978;2023-04-27T06:40:57;100781.75;;;8.80;67.33
2339;BME280;1180;51.438;6.978;2023-04-27T06:43:23;100781.59;;;9.04;66.76
2339;BME280;1180;51.438;6.978;2023-04-27T06:45:49;100775.44;;;9.28;66.13
2339;BME280;1180;51.438;6.978;2023-04-27T06:48:14;100770.25;;;9.29;64.76
2339;BME280;1180;51.438;6.978;2023-04-27T06:50:39;100769.06;;;9.36;65.18
2339;BME280;1180;51.438;6.978;2023-04-27T06:53:05;100777.94;;;9.48;65.23
2339;BME280;1180;51.438;6.978;2023-04-27T06:55:30;100782.75;;;9.54;64.07
2339;BME280;1180;51.438;6.978;2023-04-27T06:57:55;100770.56;;;9.60;63.95
2339;BME280;1180;51.438;6.978;2023-04-27T07:00:21;100775.38;;;9.48;63.52
2339;BME280;1180;51.438;6.978;2023-04-27T07:02:46;100772.03;;;9.46;62.76
2339;BME280;1180;51.438;6.978;2023-04-27T07:05:12;100769.44;;;9.65;62.67
2339;BME280;1180;51.438;6.978;2023-04-27T07:07:37;100775.47;;;9.64;61.18
2339;BME280;1180;51.438;6.978;2023-04-27T07:10:03;100765.34;;;9.80;61.75
2339;BME280;1180;51.438;6.978;2023-04-27T07:12:28;100763.69;;;9.60;61.63
2339;BME280;1180;51.438;6.978;2023-04-27T07:14:54;100766.00;;;9.84;61.28
2339;BME280;1180;51.438;6.978;2023-04-27T07:17:19;100764.72;;;9.93;60.66
2339;BME280;1180;51.438;6.978;2023-04-27T07:19:45;100760.28;;;9.96;60.46
2339;BME280;1180;51.438;6.978;2023-04-27T07:22:10;100766.69;;;10.05;60.35
2339;BME280;1180;51.438;6.978;2023-04-27T07:24:36;100768.44;;;10.05;59.10
2339;BME280;1180;51.438;6.978;2023-04-27T07:27:01;100763.03;;;9.74;59.68
2339;BME280;1180;51.438;6.978;2023-04-27T07:29:28;100767.06;;;9.80;60.72
2339;BME280;1180;51.438;6.978;2023-04-27T07:31:54;100764.13;;;10.05;59.70
2339;BME280;1180;51.438;6.978;2023-04-27T07:34:20;100770.56;;;9.96;59.81
2339;BME280;1180;51.438;6.978;2023-04-27T07:36:45;100763.53;;;10.18;58.93
2339;BME280;1180;51.438;6.978;2023-04-27T07:39:10;100772.66;;;10.23;59.21
2339;BME280;1180;51.438;6.978;2023-04-27T07:41:36;100769.28;;;10.40;57.82
2339;BME280;1180;51.438;6.978;2023-04-27T07:44:02;100782.84;;;10.43;57.73
2339;BME280;1180;51.438;6.978;2023-04-27T07:46:27;100773.97;;;10.50;57.02
2339;BME280;1180;51.438;6.978;2023-04-27T07:48:54;100772.72;;;10.39;57.22
2339;BME280;1180;51.438;6.978;2023-04-27T07:51:23;100770.72;;;10.46;57.46
2339;BME280;1180;51.438;6.978;2023-04-27T07:53:49;100774.53;;;10.37;56.75
2339;BME280;1180;51.438;6.978;2023-04-27T07:56:15;100780.38;;;10.41;57.79
2339;BME280;1180;51.438;6.978;2023-04-27T07:58:41;100779.53;;;10.23;56.70
2339;BME280;1180;51.438;6.978;2023-04-27T08:01:07;100772.22;;;10.33;57.23
2339;BME280;1180;51.438;6.978;2023-04-27T08:03:32;100766.78;;;10.39;56.77
2339;BME280;1180;51.438;6.978;2023-04-27T08:05:58;100777.56;;;10.63;56.24
2339;BME280;1180;51.438;6.978;2023-04-27T08:08:23;100777.56;;;10.63;55.83
2339;BME280;1180;51.438;6.978;2023-04-27T08:10:48;100769.00;;;10.80;55.38
2339;BME280;1180;51.438;6.978;2023-04-27T08:13:14;100760.47;;;10.80;55.15
2339;BME280;1180;51.438;6.978;2023-04-27T08:15:39;100760.78;;;10.90;55.15
2339;BME280;1180;51.438;6.978;2023-04-27T08:18:05;100759.28;;;11.19;54.61
2339;BME280;1180;51.438;6.978;2023-04-27T08:20:30;100749.22;;;11.47;53.44
2339;BME280;1180;51.438;6.978;2023-04-27T08:22:55;100749.22;;;11.47;53.00
2339;BME280;1180;51.438;6.978;2023-04-27T08:25:21;100751.22;;;11.41;53.53
2339;BME280;1180;51.438;6.978;2023-04-27T08:27:46;100759.44;;;11.16;52.54
2339;BME280;1180;51.438;6.978;2023-04-27T08:30:12;100751.38;;;11.38;52.40
2339;BME280;1180;51.438;6.978;2023-04-27T08:32:37;100747.75;;;11.43;52.11
2339;BME280;1180;51.438;6.978;2023-04-27T08:35:03;100753.44;;;11.16;50.48
2339;BME280;1180;51.438;6.978;2023-04-27T08:37:28;100737.41;;;11.28;51.13
2339;BME280;1180;51.438;6.978;2023-04-27T08:39:53;100743.00;;;11.51;51.63
2339;BME280;1180;51.438;6.978;2023-04-27T08:42:19;100739.38;;;11.85;51.26
2339;BME280;1180;51.438;6.978;2023-04-27T08:44:44;100745.13;;;11.75;50.75
2339;BME280;1180;51.438;6.978;2023-04-27T08:47:10;100742.53;;;11.75;49.69
2339;BME280;1180;51.438;6.978;2023-04-27T08:49:36;100734.22;;;12.02;49.54
2339;BME280;1180;51.438;6.978;2023-04-27T08:52:16;100744.66;;;11.98;48.89
2339;BME280;1180;51.438;6.978;2023-04-27T08:54:41;100735.16;;;11.84;48.82
2339;BME280;1180;51.438;6.978;2023-04-27T08:57:11;100736.78;;;12.02;48.52
2339;BME280;1180;51.438;6.978;2023-04-27T08:59:41;100735.44;;;12.25;48.60
2339;BME280;1180;51.438;6.978;2023-04-27T09:02:18;100739.31;;;12.32;48.93
2339;BME280;1180;51.438;6.978;2023-04-27T09:04:44;100737.66;;;12.17;48.38
2339;BME280;1180;51.438;6.978;2023-04-27T09:07:11;100733.13;;;12.20;49.01
2339;BME280;1180;51.438;6.978;2023-04-27T09:09:36;100736.19;;;12.27;48.22
2339;BME280;1180;51.438;6.978;2023-04-27T09:12:18;100739.78;;;12.53;48.60
2339;BME280;1180;51.438;6.978;2023-04-27T09:14:59;100729.66;;;12.50;48.36
2339;BME280;1180;51.438;6.978;2023-04-27T09:17:29;100726.19;;;12.66;46.84
2339;BME280;1180;51.438;6.978;2023-04-27T09:20:05;100723.97;;;12.45;46.13
2339;BME280;1180;51.438;6.978;2023-04-27T09:22:49;100724.00;;;12.60;46.59
2339;BME280;1180;51.438;6.978;2023-04-27T09:25:27;100727.47;;;12.73;46.58
2339;BME280;1180;51.438;6.978;2023-04-27T09:27:54;100717.63;;;12.65;47.21
2339;BME280;1180;51.438;6.978;2023-04-27T09:30:20;100717.81;;;12.62;45.80
2339;BME280;1180;51.438;6.978;2023-04-27T09:32:56;100720.75;;;12.85;45.93
2339;BME280;1180;51.438;6.978;2023-04-27T09:35:30;100722.66;;;12.81;45.82
2339;BME280;1180;51.438;6.978;2023-04-27T09:37:59;100717.13;;;12.88;46.03
2339;BME280;1180;51.438;6.978;2023-04-27T09:40:26;100718.06;;;12.86;45.59
2339;BME280;1180;51.438;6.978;2023-04-27T09:42:58;100720.47;;;12.46;46.25
2339;BME280;1180;51.438;6.978;2023-04-27T09:45:27;100715.78;;;12.53;46.25
2339;BME280;1180;51.438;6.978;2023-04-27T09:47:53;100705.38;;;12.54;46.12
2339;BME280;1180;51.438;6.978;2023-04-27T09:50:18;100711.31;;;12.98;45.80
2339;BME280;1180;51.438;6.978;2023-04-27T09:52:45;100702.59;;;12.86;44.52
2339;BME280;1180;51.438;6.978;2023-04-27T09:55:16;100711.84;;;13.18;45.89
2339;BME280;1180;51.438;6.978;2023-04-27T09:57:54;100704.25;;;13.29;45.40
2339;BME280;1180;51.438;6.978;2023-04-27T10:08:39;100700.34;;;13.51;44.50
2339;BME280;1180;51.438;6.978;2023-04-27T10:11:13;100696.44;;;13.31;43.88
2339;BME280;1180;51.438;6.978;2023-04-27T10:13:50;100690.97;;;13.63;44.65
2339;BME280;1180;51.438;6.978;2023-04-27T10:16:17;100687.91;;;13.84;42.80
2339;BME280;1180;51.438;6.978;2023-04-27T10:18:53;100689.91;;;13.93;42.74
2339;BME280;1180;51.438;6.978;2023-04-27T10:21:19;100688.34;;;14.17;42.80
2339;BME280;1180;51.438;6.978;2023-04-27T10:23:49;100685.84;;;14.41;42.33
2339;BME280;1180;51.438;6.978;2023-04-27T10:26:22;100683.97;;;14.43;41.01
2339;BME280;1180;51.438;6.978;2023-04-27T10:28:59;100687.50;;;14.29;42.44
2339;BME280;1180;51.438;6.978;2023-04-27T10:31:28;100676.66;;;14.11;41.18
2339;BME280;1180;51.438;6.978;2023-04-27T10:34:15;100680.09;;;14.11;40.50
2339;BME280;1180;51.438;6.978;2023-04-27T10:36:40;100672.94;;;14.15;39.79
2339;BME280;1180;51.438;6.978;2023-04-27T10:39:16;100663.53;;;14.40;41.23
2339;BME280;1180;51.438;6.978;2023-04-27T10:41:53;100659.13;;;14.66;40.74
2339;BME280;1180;51.438;6.978;2023-04-27T10:44:29;100660.94;;;14.53;41.17
2339;BME280;1180;51.438;6.978;2023-04-27T10:46:56;100660.59;;;14.57;40.05
2339;BME280;1180;51.438;6.978;2023-04-27T10:49:25;100665.34;;;14.64;40.56
2339;BME280;1180;51.438;6.978;2023-04-27T10:51:51;100664.22;;;14.81;41.36
2339;BME280;1180;51.438;6.978;2023-04-27T10:54:16;100661.84;;;14.78;40.35
2339;BME280;1180;51.438;6.978;2023-04-27T10:56:43;100661.69;;;14.92;40.80
2339;BME280;1180;51.438;6.978;2023-04-27T10:59:08;100661.63;;;15.05;40.29
2339;BME280;1180;51.438;6.978;2023-04-27T11:01:34;100649.75;;;15.27;40.18
2339;BME280;1180;51.438;6.978;2023-04-27T11:04:01;100664.31;;;15.04;40.72
2339;BME280;1180;51.438;6.978;2023-04-27T11:06:27;100659.53;;;14.86;39.62
2339;BME280;1180;51.438;6.978;2023-04-27T11:08:54;100657.38;;;14.67;40.15
2339;BME280;1180;51.438;6.978;2023-04-27T11:11:20;100660.97;;;14.14;41.21
2339;BME280;1180;51.438;6.978;2023-04-27T11:13:47;100652.50;;;14.38;40.68
2339;BME280;1180;51.438;6.978;2023-04-27T11:16:14;100651.63;;;14.50;41.43
2339;BME280;1180;51.438;6.978;2023-04-27T11:18:40;100653.88;;;14.68;41.46
2339;BME280;1180;51.438;6.978;2023-04-27T11:23:35;100652.28;;;14.91;40.38
2339;BME280;1180;51.438;6.978;2023-04-27T11:28:35;100657.66;;;15.12;39.86
2339;BME280;1180;51.438;6.978;2023-04-27T11:31:01;100657.56;;;15.50;40.37
2339;BME280;1180;51.438;6.978;2023-04-27T11:33:28;100644.81;;;15.82;39.06
2339;BME280;1180;51.438;6.978;2023-04-27T11:35:57;100638.63;;;15.96;38.43
2339;BME280;1180;51.438;6.978;2023-04-27T11:38:23;100633.63;;;15.82;37.08
2339;BME280;1180;51.438;6.978;2023-04-27T11:40:59;100634.34;;;15.72;38.43
2339;BME280;1180;51.438;6.978;2023-04-27T11:43:25;100637.53;;;15.76;38.04
2339;BME280;1180;51.438;6.978;2023-04-27T11:45:51;100635.34;;;16.06;38.89
2339;BME280;1180;51.438;6.978;2023-04-27T11:48:18;100634.53;;;16.16;37.21
2339;BME280;1180;51.438;6.978;2023-04-27T11:50:48;100624.63;;;16.22;44.22
2339;BME280;1180;51.438;6.978;2023-04-27T11:53:14;100621.91;;;16.23;39.14
2339;BME280;1180;51.438;6.978;2023-04-27T11:55:41;100622.84;;;16.22;37.83
2339;BME280;1180;51.438;6.978;2023-04-27T11:58:16;100620.84;;;16.37;37.57
2339;BME280;1180;51.438;6.978;2023-04-27T12:00:41;100618.72;;;15.85;38.44
2339;BME280;1180;51.438;6.978;2023-04-27T12:03:07;100617.22;;;15.94;39.64
2339;BME280;1180;51.438;6.978;2023-04-27T12:05:34;100614.66;;;15.94;38.66
2339;BME280;1180;51.438;6.978;2023-04-27T12:08:00;100609.88;;;15.65;37.39
2339;BME280;1180;51.438;6.978;2023-04-27T12:10:26;100608.16;;;16.00;38.10
2339;BME280;1180;51.438;6.978;2023-04-27T12:12:52;100613.03;;;15.69;38.30
2339;BME280;1180;51.438;6.978;2023-04-27T12:15:17;100601.81;;;15.45;38.97
2339;BME280;1180;51.438;6.978;2023-04-27T12:17:43;100591.78;;;15.18;38.44
2339;BME280;1180;51.438;6.978;2023-04-27T12:20:09;100600.63;;;15.27;38.36
2339;BME280;1180;51.438;6.978;2023-04-27T12:22:35;100597.13;;;14.79;38.26
2339;BME280;1180;51.438;6.978;2023-04-27T12:25:00;100593.84;;;14.64;39.45
2339;BME280;1180;51.438;6.978;2023-04-27T12:27:26;100595.84;;;14.61;39.55
2339;BME280;1180;51.438;6.978;2023-04-27T12:29:51;100596.78;;;14.59;39.19
2339;BME280;1180;51.438;6.978;2023-04-27T12:32:18;100590.34;;;14.90;39.01
2339;BME280;1180;51.438;6.978;2023-04-27T12:34:44;100584.91;;;15.41;38.66
2339;BME280;1180;51.438;6.978;2023-04-27T12:37:10;100581.75;;;15.72;38.25
2339;BME280;1180;51.438;6.978;2023-04-27T12:39:36;100583.81;;;16.02;38.35
2339;BME280;1180;51.438;6.978;2023-04-27T12:42:01;100586.72;;;16.21;37.34
2339;BME280;1180;51.438;6.978;2023-04-27T12:44:27;100588.97;;;16.25;37.87
2339;BME280;1180;51.438;6.978;2023-04-27T12:46:53;100583.69;;;16.15;36.75
2339;BME280;1180;51.438;6.978;2023-04-27T12:49:20;100583.69;;;16.15;36.66
2339;BME280;1180;51.438;6.978;2023-04-27T12:51:45;100583.72;;;16.59;35.54
2339;BME280;1180;51.438;6.978;2023-04-27T12:54:12;100576.34;;;16.43;34.67
2339;BME280;1180;51.438;6.978;2023-04-27T12:56:38;100567.94;;;16.51;36.31
2339;BME280;1180;51.438;6.978;2023-04-27T12:59:04;100570.16;;;16.88;34.48
2339;BME280;1180;51.438;6.978;2023-04-27T13:01:34;100572.66;;;16.90;36.78
2339;BME280;1180;51.438;6.978;2023-04-27T13:04:01;100570.56;;;16.84;36.63
2339;BME280;1180;51.438;6.978;2023-04-27T13:06:27;100572.03;;;16.65;35.89
2339;BME280;1180;51.438;6.978;2023-04-27T13:08:53;100579.97;;;16.85;36.45
2339;BME280;1180;51.438;6.978;2023-04-27T13:11:19;100573.91;;;17.07;35.57
2339;BME280;1180;51.438;6.978;2023-04-27T13:13:45;100581.03;;;16.82;34.01
2339;BME280;1180;51.438;6.978;2023-04-27T13:16:12;100577.91;;;16.67;38.12
2339;BME280;1180;51.438;6.978;2023-04-27T13:18:39;100579.28;;;17.15;44.74
2339;BME280;1180;51.438;6.978;2023-04-27T13:21:06;100574.78;;;17.60;41.25
2339;BME280;1180;51.438;6.978;2023-04-27T13:23:32;100581.34;;;17.64;36.65
2339;BME280;1180;51.438;6.978;2023-04-27T13:25:57;100570.75;;;17.77;41.09
2339;BME280;1180;51.438;6.978;2023-04-27T13:28:23;100561.75;;;18.22;44.29